createdAt,value
2022-12-22T00:00:03.417Z,100129.98
2022-12-22T00:04:31.336Z,100128.50
2022-12-22T00:07:20.669Z,100124.79
2022-12-22T00:10:10.084Z,100123.20
2022-12-22T00:13:07.229Z,100120.88
2022-12-22T00:15:56.619Z,100118.98
2022-12-22T00:18:47.254Z,100110.96
2022-12-22T00:21:36.916Z,100102.95
2022-12-22T00:24:28.686Z,100102.23
2022-12-22T00:27:18.397Z,100095.34
2022-12-22T00:30:13.273Z,100099.70
2022-12-22T00:33:02.685Z,100109.62
2022-12-22T00:35:52.161Z,100113.59
2022-12-22T00:38:42.080Z,100116.63
2022-12-22T00:41:31.645Z,100114.36
2022-12-22T00:44:21.650Z,100118.07
2022-12-22T00:47:11.189Z,100121.95
2022-12-22T00:50:03.780Z,100124.78
2022-12-22T00:52:54.098Z,100127.95
2022-12-22T00:55:48.984Z,100121.94
2022-12-22T00:58:39.992Z,100111.82
2022-12-22T01:01:31.177Z,100113.11
2022-12-22T01:04:19.349Z,100122.93
2022-12-22T01:07:08.964Z,100129.43
2022-12-22T01:09:58.349Z,100125.35
2022-12-22T01:12:55.915Z,100125.84
2022-12-22T01:15:47.195Z,100118.54
2022-12-22T01:18:35.375Z,100116.56
2022-12-22T01:21:25.644Z,100116.09
2022-12-22T01:24:14.998Z,100115.80
2022-12-22T01:27:04.863Z,100108.29
2022-12-22T01:29:54.525Z,100097.66
2022-12-22T01:32:44.165Z,100090.73
2022-12-22T01:35:39.241Z,100088.83
2022-12-22T01:38:28.789Z,100091.84
2022-12-22T01:41:20.288Z,100093.10
2022-12-22T01:44:10.145Z,100093.91
2022-12-22T01:47:03.271Z,100090.04
2022-12-22T01:49:55.599Z,100086.73
2022-12-22T01:52:54.004Z,100089.56
2022-12-22T01:55:44.931Z,100088.86
2022-12-22T01:58:42.509Z,100086.89
2022-12-22T02:01:32.170Z,100084.87
2022-12-22T02:04:21.985Z,100084.55
2022-12-22T02:07:16.738Z,100087.50
2022-12-22T02:10:16.929Z,100091.98
2022-12-22T02:13:15.601Z,100091.17
2022-12-22T02:16:10.389Z,100089.14
2022-12-22T02:19:07.865Z,100085.58
2022-12-22T02:22:05.300Z,100082.71
2022-12-22T02:24:59.970Z,100077.05
2022-12-22T02:27:53.147Z,100077.55
2022-12-22T02:30:51.802Z,100085.86
2022-12-22T02:33:42.526Z,100082.37
2022-12-22T02:36:44.892Z,100078.02
2022-12-22T02:39:43.556Z,100071.42
2022-12-22T02:42:41.852Z,100064.74
2022-12-22T02:45:37.222Z,100062.40
2022-12-22T02:48:32.251Z,100059.60
2022-12-22T02:51:27.072Z,100058.55
2022-12-22T02:54:18.257Z,100059.10
2022-12-22T02:57:07.932Z,100058.55
2022-12-22T02:59:57.322Z,100052.20
2022-12-22T03:02:46.773Z,100050.69
2022-12-22T03:05:36.390Z,100049.46
2022-12-22T03:08:25.767Z,100047.98
2022-12-22T03:11:15.395Z,100040.96
2022-12-22T03:14:04.860Z,100035.11
2022-12-22T03:16:54.054Z,100033.73
2022-12-22T03:19:43.277Z,100026.61
2022-12-22T03:22:32.944Z,100025.32
2022-12-22T03:25:22.247Z,100024.39
2022-12-22T03:27:54.141Z,100025.81
2022-12-22T03:30:26.334Z,100028.79
2022-12-22T03:32:58.281Z,100025.54
2022-12-22T03:35:30.362Z,100020.88
2022-12-22T03:38:03.831Z,100020.24
2022-12-22T03:40:35.849Z,100016.85
2022-12-22T03:43:25.349Z,100014.35
2022-12-22T03:46:16.513Z,100007.95
2022-12-22T03:49:08.769Z,100003.17
2022-12-22T03:51:43.444Z,100004.27
2022-12-22T03:54:16.367Z,100004.98
2022-12-22T03:56:49.849Z,100001.63
2022-12-22T03:59:22.090Z,99996.36
2022-12-22T04:01:55.787Z,99998.36
2022-12-22T04:04:28.913Z,99993.36
2022-12-22T04:07:06.963Z,99982.36
2022-12-22T04:09:58.772Z,99982.27
2022-12-22T04:12:48.262Z,99978.09
2022-12-22T04:15:20.195Z,99967.84
2022-12-22T04:17:52.267Z,99967.91
2022-12-22T04:20:27.609Z,99957.27
2022-12-22T04:22:59.718Z,99958.96
2022-12-22T04:25:31.678Z,99960.06
2022-12-22T04:28:03.958Z,99961.39
2022-12-22T04:30:36.273Z,99963.23
2022-12-22T04:33:08.216Z,99958.92
2022-12-22T04:35:40.034Z,99955.57
2022-12-22T04:38:12.015Z,99956.11
2022-12-22T04:40:43.879Z,99954.88
2022-12-22T04:43:15.634Z,99959.46
2022-12-22T04:45:48.083Z,99959.96
2022-12-22T04:48:19.941Z,99961.86
2022-12-22T04:50:54.998Z,99960.88
2022-12-22T04:53:28.053Z,99960.44
2022-12-22T04:56:02.117Z,99956.97
2022-12-22T04:58:34.662Z,99949.18
2022-12-22T05:01:13.942Z,99950.20
2022-12-22T05:03:46.188Z,99944.77
2022-12-22T05:06:18.569Z,99943.66
2022-12-22T05:08:50.383Z,99945.25
2022-12-22T05:11:22.372Z,99938.85
2022-12-22T05:13:54.194Z,99938.66
2022-12-22T05:16:26.108Z,99934.06
2022-12-22T05:18:58.014Z,99925.09
2022-12-22T05:21:29.985Z,99926.96
2022-12-22T05:24:01.822Z,99926.80
2022-12-22T05:26:33.741Z,99923.21
2022-12-22T05:29:05.553Z,99918.50
2022-12-22T05:31:40.725Z,99912.05
2022-12-22T05:34:17.028Z,99904.33
2022-12-22T05:36:48.867Z,99909.18
2022-12-22T05:39:20.819Z,99904.34
2022-12-22T05:41:52.692Z,99902.48
2022-12-22T05:44:24.576Z,99898.64
2022-12-22T05:46:56.515Z,99893.17
2022-12-22T05:49:28.332Z,99880.71
2022-12-22T05:52:00.199Z,99880.73
2022-12-22T05:54:32.063Z,99873.88
2022-12-22T05:57:03.997Z,99875.95
2022-12-22T05:59:35.830Z,99872.88
2022-12-22T06:02:07.775Z,99871.23
2022-12-22T06:04:39.754Z,99866.23
2022-12-22T06:07:11.634Z,99872.76
2022-12-22T06:09:43.527Z,99871.49
2022-12-22T06:12:15.601Z,99873.85
2022-12-22T06:14:47.385Z,99875.19
2022-12-22T06:17:19.224Z,99875.06
2022-12-22T06:19:51.058Z,99873.70
2022-12-22T06:22:22.932Z,99876.84
2022-12-22T06:24:54.709Z,99868.63
2022-12-22T06:27:26.634Z,99868.82
2022-12-22T06:30:04.910Z,99863.75
2022-12-22T06:32:38.941Z,99864.16
2022-12-22T06:35:12.306Z,99866.36
2022-12-22T06:37:44.168Z,99863.46
2022-12-22T06:40:16.516Z,99864.42
2022-12-22T06:43:08.028Z,99865.08
2022-12-22T06:45:42.477Z,99859.89
2022-12-22T06:48:14.940Z,99853.61
2022-12-22T06:50:47.051Z,99851.88
2022-12-22T06:53:19.146Z,99848.16
2022-12-22T06:55:50.947Z,99852.00
2022-12-22T06:58:22.766Z,99847.26
2022-12-22T07:00:56.698Z,99846.54
2022-12-22T07:03:28.553Z,99848.71
2022-12-22T07:06:00.814Z,99848.46
2022-12-22T07:08:32.630Z,99844.27
2022-12-22T07:11:04.478Z,99848.35
2022-12-22T07:13:37.299Z,99843.90
2022-12-22T07:16:11.177Z,99839.88
2022-12-22T07:18:44.661Z,99839.68
2022-12-22T07:21:16.948Z,99834.33
2022-12-22T07:23:48.800Z,99827.23
2022-12-22T07:26:20.581Z,99825.58
2022-12-22T07:28:52.488Z,99824.34
2022-12-22T07:31:24.679Z,99824.73
2022-12-22T07:33:56.603Z,99823.05
2022-12-22T07:36:28.615Z,99816.23
2022-12-22T07:39:00.428Z,99812.95
2022-12-22T07:41:49.723Z,99816.62
2022-12-22T07:44:21.653Z,99812.71
2022-12-22T07:46:53.574Z,99797.70
2022-12-22T07:49:42.956Z,99791.52
2022-12-22T07:52:14.781Z,99789.27
2022-12-22T07:54:46.587Z,99790.59
2022-12-22T07:57:18.350Z,99785.66
2022-12-22T07:59:50.190Z,99786.48
2022-12-22T08:02:22.066Z,99780.33
2022-12-22T08:04:54.024Z,99768.77
2022-12-22T08:07:25.889Z,99772.86
2022-12-22T08:09:57.723Z,99774.23
2022-12-22T08:12:32.501Z,99775.66
2022-12-22T08:15:04.861Z,99771.34
2022-12-22T08:17:36.817Z,99764.59
2022-12-22T08:20:14.151Z,99764.27
2022-12-22T08:22:46.028Z,99760.09
2022-12-22T08:25:18.519Z,99758.20
2022-12-22T08:27:54.022Z,99750.51
2022-12-22T08:30:34.680Z,99751.99
2022-12-22T08:33:06.873Z,99749.15
2022-12-22T08:35:38.850Z,99741.12
2022-12-22T08:38:11.494Z,99739.24
2022-12-22T08:40:46.659Z,99731.58
2022-12-22T08:43:21.674Z,99728.83
2022-12-22T08:45:53.507Z,99725.46
2022-12-22T08:48:25.363Z,99721.65
2022-12-22T08:50:57.205Z,99720.42
2022-12-22T08:56:20.775Z,99725.07
2022-12-22T08:58:52.557Z,99722.05
2022-12-22T09:01:25.297Z,99721.67
2022-12-22T09:03:57.212Z,99720.36
2022-12-22T09:06:34.823Z,99722.94
2022-12-22T09:09:12.154Z,99723.40
2022-12-22T09:11:44.144Z,99718.10
2022-12-22T09:14:16.429Z,99715.88
2022-12-22T09:16:48.322Z,99712.50
2022-12-22T09:19:20.319Z,99707.88
2022-12-22T09:21:52.298Z,99704.42
2022-12-22T09:24:24.135Z,99699.36
2022-12-22T09:26:56.144Z,99696.84
2022-12-22T09:29:28.158Z,99689.04
2022-12-22T09:32:00.218Z,99690.54
2022-12-22T09:34:32.122Z,99684.61
2022-12-22T09:37:06.492Z,99682.73
2022-12-22T09:39:38.377Z,99687.30
2022-12-22T09:42:15.579Z,99676.03
2022-12-22T09:44:52.018Z,99669.50
2022-12-22T09:47:33.339Z,99668.65
2022-12-22T09:50:17.195Z,99665.73
2022-12-22T09:52:53.752Z,99666.93
2022-12-22T09:55:39.654Z,99660.44
2022-12-22T09:58:26.276Z,99658.86
2022-12-22T10:01:06.716Z,99649.06
2022-12-22T10:03:46.505Z,99650.66
2022-12-22T10:06:26.114Z,99647.98
2022-12-22T10:08:57.961Z,99646.69
2022-12-22T10:11:29.780Z,99643.81
2022-12-22T10:14:01.629Z,99643.66
2022-12-22T10:16:33.567Z,99642.30
2022-12-22T10:19:12.795Z,99641.02
2022-12-22T10:21:47.139Z,99635.96
2022-12-22T10:24:29.554Z,99628.03
2022-12-22T10:27:03.713Z,99627.92
2022-12-22T10:29:37.277Z,99624.60
2022-12-22T10:32:16.585Z,99620.86
2022-12-22T10:35:03.133Z,99619.33
2022-12-22T10:37:38.571Z,99616.15
2022-12-22T10:40:25.941Z,99618.52
2022-12-22T10:42:59.903Z,99613.02
2022-12-22T10:45:31.860Z,99603.15
2022-12-22T10:48:04.184Z,99598.15
2022-12-22T10:50:45.169Z,99590.79
2022-12-22T10:53:17.304Z,99586.11
2022-12-22T10:56:05.630Z,99586.10
2022-12-22T10:58:50.319Z,99583.98
2022-12-22T11:01:33.879Z,99582.63
2022-12-22T11:04:23.571Z,99578.69
2022-12-22T11:06:57.069Z,99574.91
2022-12-22T11:09:34.129Z,99579.64
2022-12-22T11:12:23.220Z,99572.17
2022-12-22T11:15:02.417Z,99567.95
2022-12-22T11:17:45.708Z,99556.23
2022-12-22T11:20:45.882Z,99549.82
2022-12-22T11:23:32.395Z,99544.77
2022-12-22T11:26:16.292Z,99538.30
2022-12-22T11:29:03.239Z,99533.70
2022-12-22T11:31:50.973Z,99530.01
2022-12-22T11:34:41.948Z,99524.91
2022-12-22T11:37:28.288Z,99517.45
2022-12-22T11:40:17.062Z,99515.23
2022-12-22T11:43:07.628Z,99508.08
2022-12-22T11:45:53.332Z,99505.69
2022-12-22T11:48:41.326Z,99505.84
2022-12-22T11:51:27.140Z,99498.40
2022-12-22T11:54:15.421Z,99497.19
2022-12-22T11:56:51.948Z,99497.11
2022-12-22T11:59:39.323Z,99490.98
2022-12-22T12:02:34.980Z,99488.61
2022-12-22T12:05:34.601Z,99484.65
2022-12-22T12:08:16.634Z,99482.35
2022-12-22T12:10:52.957Z,99482.08
2022-12-22T12:13:36.723Z,99478.98
2022-12-22T12:16:18.675Z,99478.39
2022-12-22T12:19:08.722Z,99476.42
2022-12-22T12:21:49.097Z,99470.55
2022-12-22T12:24:34.890Z,99464.67
2022-12-22T12:27:18.907Z,99464.30
2022-12-22T12:30:35.644Z,99461.08
2022-12-22T12:32:57.684Z,99460.13
2022-12-22T12:35:48.315Z,99454.00
2022-12-22T12:41:29.140Z,99445.77
2022-12-22T12:44:02.534Z,99442.80
2022-12-22T12:47:13.605Z,99442.48
2022-12-22T12:50:03.264Z,99439.06
2022-12-22T12:53:15.675Z,99437.24
2022-12-22T12:56:02.407Z,99438.89
2022-12-22T12:58:55.671Z,99434.65
2022-12-22T13:01:57.736Z,99431.55
2022-12-22T13:05:10.644Z,99430.98
2022-12-22T13:08:16.200Z,99423.20
2022-12-22T13:11:12.405Z,99420.68
2022-12-22T13:13:52.193Z,99420.98
2022-12-22T13:16:33.795Z,99418.10
2022-12-22T13:19:18.366Z,99424.34
2022-12-22T13:21:53.494Z,99421.40
2022-12-22T13:24:49.264Z,99424.23
2022-12-22T13:27:23.669Z,99424.74
2022-12-22T13:29:55.964Z,99422.38
2022-12-22T13:32:34.142Z,99426.25
2022-12-22T13:35:38.566Z,99424.13
2022-12-22T13:38:30.424Z,99424.30
2022-12-22T13:41:17.129Z,99422.90
2022-12-22T13:43:57.464Z,99424.95
2022-12-22T13:46:31.260Z,99425.70
2022-12-22T13:49:04.995Z,99424.77
2022-12-22T13:51:39.681Z,99421.05
2022-12-22T13:54:18.377Z,99420.55
2022-12-22T13:56:52.487Z,99424.47
2022-12-22T13:59:30.861Z,99422.48
2022-12-22T14:02:05.621Z,99419.50
2022-12-22T14:04:39.066Z,99420.92
2022-12-22T14:07:14.988Z,99417.35
2022-12-22T14:09:50.730Z,99418.31
2022-12-22T14:12:24.196Z,99413.27
2022-12-22T14:14:58.293Z,99412.83
2022-12-22T14:17:32.697Z,99409.64
2022-12-22T14:20:17.629Z,99407.23
2022-12-22T14:23:00.095Z,99405.64
2022-12-22T14:25:35.416Z,99407.79
2022-12-22T14:28:09.060Z,99406.67
2022-12-22T14:30:46.326Z,99407.94
2022-12-22T14:33:27.858Z,99404.84
2022-12-22T14:36:17.614Z,99405.13
2022-12-22T14:38:51.411Z,99404.34
2022-12-22T14:41:42.973Z,99402.77
2022-12-22T14:44:20.901Z,99404.36
2022-12-22T14:47:09.248Z,99405.27
2022-12-22T14:49:48.006Z,99407.70
2022-12-22T14:52:26.220Z,99405.45
2022-12-22T14:54:58.477Z,99404.64
2022-12-22T14:57:37.167Z,99410.54
2022-12-22T15:00:32.042Z,99410.64
2022-12-22T15:03:07.224Z,99414.48
2022-12-22T15:05:42.211Z,99413.39
2022-12-22T15:08:40.939Z,99412.15
2022-12-22T15:11:14.764Z,99412.77
2022-12-22T15:13:48.964Z,99411.17
2022-12-22T15:16:24.028Z,99417.16
2022-12-22T15:18:56.462Z,99418.11
2022-12-22T15:21:28.241Z,99417.82
2022-12-22T15:24:00.127Z,99422.16
2022-12-22T15:26:37.713Z,99423.98
2022-12-22T15:29:09.936Z,99423.35
2022-12-22T15:31:43.461Z,99423.27
2022-12-22T15:34:19.962Z,99421.14
2022-12-22T15:36:51.892Z,99425.17
2022-12-22T15:39:24.745Z,99422.13
2022-12-22T15:41:56.538Z,99418.83
2022-12-22T15:44:31.095Z,99419.98
2022-12-22T15:47:07.342Z,99418.05
2022-12-22T15:49:39.529Z,99423.10
2022-12-22T15:52:14.837Z,99425.73
2022-12-22T15:54:46.816Z,99425.91
2022-12-22T15:57:18.816Z,99421.63
2022-12-22T15:59:50.785Z,99424.45
2022-12-22T16:02:22.796Z,99425.61
2022-12-22T16:04:54.782Z,99420.81
2022-12-22T16:07:26.656Z,99422.46
2022-12-22T16:09:58.992Z,99422.95
2022-12-22T16:12:32.883Z,99420.12
2022-12-22T16:15:05.314Z,99420.95
2022-12-22T16:17:37.367Z,99419.80
2022-12-22T16:20:13.800Z,99422.56
2022-12-22T16:22:46.105Z,99424.31
2022-12-22T16:25:21.150Z,99428.83
2022-12-22T16:27:53.313Z,99434.29
2022-12-22T16:30:29.790Z,99434.06
2022-12-22T16:33:02.332Z,99429.23
2022-12-22T16:35:34.219Z,99430.56
2022-12-22T16:38:06.224Z,99432.11
2022-12-22T16:40:47.756Z,99434.64
2022-12-22T16:46:19.252Z,99439.77
2022-12-22T16:48:53.986Z,99432.61
2022-12-22T16:51:29.176Z,99432.30
2022-12-22T16:54:01.110Z,99431.73
2022-12-22T16:56:35.053Z,99435.79
2022-12-22T16:59:06.905Z,99435.77
2022-12-22T17:01:42.349Z,99438.59
2022-12-22T17:04:18.168Z,99452.55
2022-12-22T17:06:51.776Z,99448.04
2022-12-22T17:09:28.523Z,99448.06
2022-12-22T17:12:01.792Z,99454.21
2022-12-22T17:14:36.380Z,99449.09
2022-12-22T17:17:13.065Z,99450.73
2022-12-22T17:19:44.957Z,99457.58
2022-12-22T17:22:27.219Z,99456.26
2022-12-22T17:25:02.193Z,99459.95
2022-12-22T17:27:35.233Z,99462.65
2022-12-22T17:30:18.114Z,99467.58
2022-12-22T17:32:53.014Z,99471.08
2022-12-22T17:35:28.962Z,99470.19
2022-12-22T17:38:01.307Z,99468.27
2022-12-22T17:40:34.821Z,99464.65
2022-12-22T17:43:06.811Z,99465.89
2022-12-22T17:45:38.544Z,99462.50
2022-12-22T17:48:11.239Z,99466.61
2022-12-22T17:50:44.941Z,99471.39
2022-12-22T17:53:20.089Z,99473.27
2022-12-22T17:56:09.002Z,99473.13
2022-12-22T17:58:43.489Z,99471.91
2022-12-22T18:01:23.389Z,99474.39
2022-12-22T18:03:55.937Z,99478.88
2022-12-22T18:06:31.845Z,99481.11
2022-12-22T18:09:04.248Z,99487.30
2022-12-22T18:11:39.206Z,99484.79
2022-12-22T18:14:16.558Z,99485.92
2022-12-22T18:16:48.507Z,99487.54
2022-12-22T18:19:20.520Z,99488.70
2022-12-22T18:21:52.417Z,99492.76
2022-12-22T18:24:24.240Z,99492.13
2022-12-22T18:26:56.048Z,99494.83
2022-12-22T18:29:27.981Z,99496.59
2022-12-22T18:32:00.134Z,99502.16
2022-12-22T18:34:32.103Z,99499.18
2022-12-22T18:37:04.255Z,99505.95
2022-12-22T18:39:38.066Z,99505.77
2022-12-22T18:42:22.100Z,99509.14
2022-12-22T18:44:54.197Z,99514.41
2022-12-22T18:47:26.047Z,99515.42
2022-12-22T18:50:02.843Z,99515.17
2022-12-22T18:52:34.830Z,99507.36
2022-12-22T18:55:12.748Z,99512.26
2022-12-22T18:57:47.330Z,99522.23
2022-12-22T19:00:24.044Z,99529.99
2022-12-22T19:02:58.900Z,99533.38
2022-12-22T19:05:33.202Z,99537.62
2022-12-22T19:08:05.655Z,99541.57
2022-12-22T19:10:41.361Z,99544.13
2022-12-22T19:13:21.825Z,99545.80
2022-12-22T19:15:53.980Z,99546.85
2022-12-22T19:18:27.616Z,99543.88
2022-12-22T19:20:59.744Z,99548.64
2022-12-22T19:23:31.653Z,99551.06
2022-12-22T19:26:08.891Z,99553.31
2022-12-22T19:28:43.902Z,99555.05
2022-12-22T19:31:23.050Z,99557.63
2022-12-22T19:33:57.065Z,99564.03
2022-12-22T19:36:30.558Z,99567.27
2022-12-22T19:39:05.033Z,99574.89
2022-12-22T19:41:42.947Z,99580.23
2022-12-22T19:44:20.686Z,99582.74
2022-12-22T19:46:53.435Z,99586.83
2022-12-22T19:49:28.132Z,99589.95
2022-12-22T19:52:00.597Z,99589.01
2022-12-22T19:54:33.463Z,99587.16
2022-12-22T19:57:08.011Z,99586.16
2022-12-22T19:59:43.695Z,99596.90
2022-12-22T20:02:29.373Z,99594.20
2022-12-22T20:05:02.179Z,99593.14
2022-12-22T20:07:37.116Z,99597.69
2022-12-22T20:10:14.870Z,99599.23
2022-12-22T20:12:47.991Z,99600.50
2022-12-22T20:15:24.094Z,99604.68
2022-12-22T20:17:57.533Z,99608.14
2022-12-22T20:20:33.748Z,99610.27
2022-12-22T20:23:11.264Z,99614.51
2022-12-22T20:26:23.213Z,99620.84
2022-12-22T20:28:55.916Z,99631.77
2022-12-22T20:31:28.781Z,99633.75
2022-12-22T20:34:01.415Z,99633.86
2022-12-22T20:36:33.512Z,99640.25
2022-12-22T20:39:12.499Z,99641.81
2022-12-22T20:41:50.499Z,99651.04
2022-12-22T20:44:25.387Z,99661.05
2022-12-22T20:46:57.212Z,99661.25
2022-12-22T20:49:29.072Z,99663.48
2022-12-22T20:52:00.953Z,99668.14
2022-12-22T20:54:32.906Z,99669.23
2022-12-22T20:57:05.568Z,99668.96
2022-12-22T20:59:37.414Z,99669.60
2022-12-22T21:02:22.731Z,99669.66
2022-12-22T21:04:54.878Z,99672.30
2022-12-22T21:07:26.716Z,99675.58
2022-12-22T21:09:58.554Z,99675.13
2022-12-22T21:12:30.530Z,99674.02
2022-12-22T21:15:03.031Z,99677.16
2022-12-22T21:17:43.289Z,99670.33
2022-12-22T21:20:25.640Z,99666.27
2022-12-22T21:22:57.495Z,99666.94
2022-12-22T21:25:29.468Z,99668.88
2022-12-22T21:28:02.596Z,99669.08
2022-12-22T21:30:38.159Z,99670.15
2022-12-22T21:33:10.827Z,99674.21
2022-12-22T21:35:42.731Z,99675.55
2022-12-22T21:38:18.820Z,99681.17
2022-12-22T21:40:50.808Z,99682.19
2022-12-22T21:43:22.935Z,99686.38
2022-12-22T21:45:54.948Z,99691.48
2022-12-22T21:48:26.765Z,99691.57
2022-12-22T21:50:58.725Z,99690.94
2022-12-22T21:53:30.558Z,99687.74
2022-12-22T21:56:02.531Z,99686.86
2022-12-22T21:58:34.294Z,99691.06
2022-12-22T22:01:06.889Z,99696.84
2022-12-22T22:03:38.811Z,99697.05
2022-12-22T22:06:10.980Z,99702.33
2022-12-22T22:08:42.760Z,99703.67
2022-12-22T22:11:20.666Z,99699.05
2022-12-22T22:13:53.090Z,99695.17
2022-12-22T22:16:24.948Z,99696.25
2022-12-22T22:18:56.891Z,99693.20
2022-12-22T22:21:28.810Z,99698.70
2022-12-22T22:24:00.671Z,99700.87
2022-12-22T22:26:32.600Z,99706.11
2022-12-22T22:29:04.425Z,99706.06
2022-12-22T22:31:36.604Z,99705.05
2022-12-22T22:34:08.500Z,99698.46
2022-12-22T22:36:40.358Z,99700.13
2022-12-22T22:39:12.214Z,99706.61
2022-12-22T22:41:44.185Z,99705.27
2022-12-22T22:44:16.094Z,99707.91
2022-12-22T22:46:48.076Z,99705.02
2022-12-22T22:49:26.251Z,99703.14
2022-12-22T22:52:00.549Z,99703.81
2022-12-22T22:54:32.808Z,99701.49
2022-12-22T22:57:05.018Z,99700.73
2022-12-22T22:59:36.926Z,99698.41
2022-12-22T23:02:10.793Z,99698.30
2022-12-22T23:04:43.101Z,99701.64
2022-12-22T23:07:15.019Z,99705.91
2022-12-22T23:09:46.888Z,99712.25
2022-12-22T23:12:18.689Z,99715.42
2022-12-22T23:14:50.466Z,99709.58
2022-12-22T23:17:22.320Z,99708.27
2022-12-22T23:19:54.203Z,99707.30
2022-12-22T23:22:26.151Z,99700.39
2022-12-22T23:24:57.949Z,99700.59
2022-12-22T23:27:31.295Z,99698.61
2022-12-22T23:30:03.196Z,99689.45
2022-12-22T23:32:35.047Z,99681.17
2022-12-22T23:35:09.337Z,99679.96
2022-12-22T23:37:41.488Z,99678.73
2022-12-22T23:43:06.697Z,99668.66
2022-12-22T23:45:40.693Z,99665.52
2022-12-22T23:48:12.720Z,99659.43
2022-12-22T23:50:46.440Z,99656.94
2022-12-22T23:53:18.710Z,99662.46
2022-12-22T23:55:50.973Z,99663.35
2022-12-22T23:58:22.814Z,99664.73
